createdAt,value
2023-02-26T00:01:33.259Z,97044.47
2023-02-26T00:04:39.194Z,97035.34
2023-02-26T00:07:46.556Z,97060.00
2023-02-26T00:10:52.102Z,97051.25
2023-02-26T00:14:02.175Z,97064.97
2023-02-26T00:17:36.994Z,97068.94
2023-02-26T00:20:44.230Z,97063.13
2023-02-26T00:23:50.294Z,97068.38
2023-02-26T00:26:57.456Z,97070.91
2023-02-26T00:30:12.527Z,97064.59
2023-02-26T00:33:20.747Z,97080.00
2023-02-26T00:36:34.015Z,97081.69
2023-02-26T00:39:54.570Z,97086.88
2023-02-26T00:43:00.815Z,97080.13
2023-02-26T00:46:26.606Z,97096.22
2023-02-26T00:50:00.194Z,97118.75
2023-02-26T00:53:20.886Z,97091.41
2023-02-26T00:56:26.702Z,97115.09
2023-02-26T00:59:33.468Z,97078.44
2023-02-26T01:02:44.767Z,97124.91
2023-02-26T01:05:51.709Z,97118.13
2023-02-26T01:09:14.143Z,97131.56
2023-02-26T01:12:21.310Z,97119.44
2023-02-26T01:15:27.447Z,97121.22
2023-02-26T01:18:48.360Z,97112.56
2023-02-26T01:22:06.788Z,97130.25
2023-02-26T01:25:24.710Z,97102.22
2023-02-26T01:28:31.552Z,97124.19
2023-02-26T01:31:52.668Z,97128.72
2023-02-26T01:35:16.515Z,97114.38
2023-02-26T01:38:35.382Z,97123.75
2023-02-26T01:41:50.920Z,96970.81
2023-02-26T01:45:06.223Z,97142.69
2023-02-26T01:48:36.478Z,97139.78
2023-02-26T01:51:52.921Z,97143.50
2023-02-26T01:54:58.410Z,97141.59
2023-02-26T01:58:06.826Z,97155.06
2023-02-26T02:01:13.324Z,97171.09
2023-02-26T02:04:21.344Z,97173.09
2023-02-26T02:07:29.603Z,97161.66
2023-02-26T02:10:36.342Z,97182.78
2023-02-26T02:14:04.661Z,97183.72
2023-02-26T02:17:23.052Z,97189.84
2023-02-26T02:21:26.339Z,97194.16
2023-02-26T02:25:01.099Z,97198.34
2023-02-26T02:28:30.890Z,97214.22
2023-02-26T02:31:49.029Z,97226.34
2023-02-26T02:35:06.095Z,97227.91
2023-02-26T02:38:22.141Z,97234.03
2023-02-26T02:41:46.486Z,97219.38
2023-02-26T02:45:02.071Z,97229.22
2023-02-26T02:48:20.892Z,97234.16
2023-02-26T02:51:35.644Z,97249.44
2023-02-26T02:54:57.401Z,97230.25
2023-02-26T02:58:09.859Z,97185.72
2023-02-26T03:01:25.230Z,97224.97
2023-02-26T03:04:33.854Z,97248.94
2023-02-26T03:07:53.360Z,97244.69
2023-02-26T03:11:00.088Z,97248.13
2023-02-26T03:14:10.406Z,97259.66
2023-02-26T03:17:32.322Z,97253.84
2023-02-26T03:20:59.160Z,97260.00
2023-02-26T03:24:19.186Z,96991.78
2023-02-26T03:27:35.820Z,97262.41
2023-02-26T03:30:50.511Z,97282.59
2023-02-26T03:34:05.066Z,97295.28
2023-02-26T03:37:28.317Z,97309.06
2023-02-26T03:40:43.709Z,97315.84
2023-02-26T03:44:02.283Z,97318.22
2023-02-26T03:47:16.854Z,97325.28
2023-02-26T03:50:35.701Z,97314.81
2023-02-26T03:54:25.806Z,97327.81
2023-02-26T03:57:46.974Z,97335.88
2023-02-26T04:01:15.905Z,97337.69
2023-02-26T04:04:31.566Z,97341.38
2023-02-26T04:07:38.417Z,97335.00
2023-02-26T04:10:56.548Z,97353.03
2023-02-26T04:14:03.186Z,97353.19
2023-02-26T04:17:13.128Z,97353.19
2023-02-26T04:20:20.037Z,97361.81
2023-02-26T04:23:25.628Z,97365.19
2023-02-26T04:26:35.295Z,97370.47
2023-02-26T04:29:40.897Z,97371.47
2023-02-26T04:32:47.262Z,97384.69
2023-02-26T04:35:53.962Z,97375.31
2023-02-26T04:39:00.428Z,97370.44
2023-02-26T04:42:08.825Z,97391.59
2023-02-26T04:45:15.823Z,97388.44
2023-02-26T04:48:21.273Z,97396.09
2023-02-26T04:51:27.910Z,97393.50
2023-02-26T04:54:35.147Z,97408.91
2023-02-26T04:57:44.341Z,97413.09
2023-02-26T05:00:53.841Z,97406.13
2023-02-26T05:04:01.449Z,97414.56
2023-02-26T05:07:08.506Z,97418.00
2023-02-26T05:10:15.904Z,97402.88
2023-02-26T05:13:25.222Z,97412.03
2023-02-26T05:16:31.645Z,97413.72
2023-02-26T05:19:37.198Z,97422.03
2023-02-26T05:22:45.361Z,97433.44
2023-02-26T05:25:51.698Z,97442.81
2023-02-26T05:29:00.974Z,97451.47
2023-02-26T05:32:07.198Z,97447.97
2023-02-26T05:35:14.876Z,97455.78
2023-02-26T05:38:20.567Z,97463.38
2023-02-26T05:41:27.134Z,97463.38
2023-02-26T05:44:35.599Z,97484.72
2023-02-26T05:47:41.991Z,97496.09
2023-02-26T05:50:47.927Z,97496.47
2023-02-26T05:53:54.235Z,97515.69
2023-02-26T05:56:59.926Z,97515.59
2023-02-26T06:00:13.331Z,97508.97
2023-02-26T06:03:19.056Z,97533.75
2023-02-26T06:06:27.294Z,97540.91
2023-02-26T06:09:32.989Z,97540.84
2023-02-26T06:12:40.155Z,97558.16
2023-02-26T06:15:48.611Z,97543.34
2023-02-26T06:18:55.093Z,97556.06
2023-02-26T06:22:00.709Z,97570.53
2023-02-26T06:25:08.120Z,97557.78
2023-02-26T06:28:13.505Z,97571.22
2023-02-26T06:31:22.886Z,97586.47
2023-02-26T06:34:28.369Z,97582.16
2023-02-26T06:37:34.852Z,97577.19
2023-02-26T06:40:40.398Z,97591.72
2023-02-26T06:43:46.759Z,97592.59
2023-02-26T06:46:55.273Z,97594.38
2023-02-26T06:50:03.115Z,97592.59
2023-02-26T06:53:08.620Z,97602.63
2023-02-26T06:56:15.160Z,97608.31
2023-02-26T06:59:20.778Z,97605.69
2023-02-26T07:02:30.163Z,97613.72
2023-02-26T07:05:35.565Z,97626.97
2023-02-26T07:08:43.438Z,97585.44
2023-02-26T07:11:49.272Z,97622.25
2023-02-26T07:14:55.838Z,97631.66
2023-02-26T07:18:04.212Z,97631.41
2023-02-26T07:21:10.563Z,97627.81
2023-02-26T07:24:16.177Z,97632.16
2023-02-26T07:27:30.156Z,97638.16
2023-02-26T07:30:36.135Z,97637.94
2023-02-26T07:33:45.313Z,97637.16
2023-02-26T07:36:50.817Z,97659.59
2023-02-26T07:39:57.084Z,97655.06
2023-02-26T07:43:02.755Z,97663.38
2023-02-26T07:46:09.702Z,97660.63
2023-02-26T07:49:18.083Z,97665.31
2023-02-26T07:52:24.469Z,97659.00
2023-02-26T07:55:30.198Z,97665.63
2023-02-26T07:58:36.904Z,97675.00
2023-02-26T08:01:42.648Z,97686.69
2023-02-26T08:04:52.205Z,97690.16
2023-02-26T08:07:57.684Z,97679.53
2023-02-26T08:11:06.276Z,97686.34
2023-02-26T08:14:14.464Z,97691.50
2023-02-26T08:17:20.759Z,97689.84
2023-02-26T08:20:29.155Z,97694.47
2023-02-26T08:23:35.599Z,97691.41
2023-02-26T08:26:42.074Z,97702.63
2023-02-26T08:29:51.596Z,97703.88
2023-02-26T08:32:57.533Z,97699.84
2023-02-26T08:36:07.094Z,97713.63
2023-02-26T08:39:12.917Z,97720.53
2023-02-26T08:42:20.686Z,97730.97
2023-02-26T08:45:26.150Z,97738.03
2023-02-26T08:48:32.480Z,97743.50
2023-02-26T08:51:40.633Z,97718.94
2023-02-26T08:55:20.083Z,97738.63
2023-02-26T08:58:25.547Z,97733.78
2023-02-26T09:01:31.795Z,97742.56
2023-02-26T09:04:37.412Z,97748.03
2023-02-26T09:07:47.574Z,97752.69
2023-02-26T09:10:53.422Z,97741.25
2023-02-26T09:13:59.905Z,97772.72
2023-02-26T09:17:05.670Z,97759.59
2023-02-26T09:20:15.554Z,97765.88
2023-02-26T09:23:23.741Z,97784.28
2023-02-26T09:26:30.056Z,97788.91
2023-02-26T09:29:35.726Z,97789.56
2023-02-26T09:32:42.315Z,97779.06
2023-02-26T09:35:47.985Z,97792.75
2023-02-26T09:38:57.100Z,97802.59
2023-02-26T09:42:22.552Z,97809.06
2023-02-26T09:45:36.961Z,97809.25
2023-02-26T09:48:46.107Z,97804.25
2023-02-26T09:52:09.845Z,97831.84
2023-02-26T09:55:32.458Z,97828.16
2023-02-26T09:58:44.585Z,97848.66
2023-02-26T10:02:02.096Z,97828.38
2023-02-26T10:05:24.020Z,97830.63
2023-02-26T10:08:43.008Z,97843.09
2023-02-26T10:12:03.560Z,97835.06
2023-02-26T10:15:18.423Z,97868.03
2023-02-26T10:18:34.725Z,97853.16
2023-02-26T10:21:48.255Z,97861.16
2023-02-26T10:25:05.092Z,97863.69
2023-02-26T10:28:48.669Z,97857.09
2023-02-26T10:32:10.448Z,97867.94
2023-02-26T10:35:25.978Z,97873.13
2023-02-26T10:38:35.874Z,97878.41
2023-02-26T10:41:41.578Z,97884.28
2023-02-26T10:45:11.082Z,97884.88
2023-02-26T10:48:43.687Z,97891.94
2023-02-26T10:51:52.992Z,97892.56
2023-02-26T10:55:38.062Z,97888.16
2023-02-26T10:58:44.741Z,97840.88
2023-02-26T11:01:57.044Z,97878.75
2023-02-26T11:05:07.925Z,97902.56
2023-02-26T11:08:21.877Z,97916.22
2023-02-26T11:11:50.283Z,97908.97
2023-02-26T11:14:56.428Z,97931.81
2023-02-26T11:18:07.030Z,97934.56
2023-02-26T11:21:21.010Z,97930.13
2023-02-26T11:24:37.574Z,97948.16
2023-02-26T11:27:43.310Z,97928.44
2023-02-26T11:30:54.497Z,97934.59
2023-02-26T11:34:08.559Z,97934.56
2023-02-26T11:37:15.119Z,97951.69
2023-02-26T11:40:32.453Z,97955.81
2023-02-26T11:43:45.390Z,97958.84
2023-02-26T11:46:58.826Z,97963.06
2023-02-26T11:50:18.962Z,97970.63
2023-02-26T11:53:34.313Z,97961.16
2023-02-26T11:56:45.674Z,97685.38
2023-02-26T11:59:56.127Z,97974.75
2023-02-26T12:03:08.436Z,97908.88
2023-02-26T12:06:22.800Z,97978.63
2023-02-26T12:09:30.293Z,97982.16
2023-02-26T12:13:03.566Z,97993.13
2023-02-26T12:16:26.064Z,98004.59
2023-02-26T12:19:55.546Z,98017.19
2023-02-26T12:23:46.353Z,98005.88
2023-02-26T12:27:06.822Z,97996.34
2023-02-26T12:31:06.885Z,98016.81
2023-02-26T12:34:39.307Z,98006.06
2023-02-26T12:38:08.428Z,98016.88
2023-02-26T12:41:57.723Z,97994.63
2023-02-26T12:45:34.097Z,97909.44
2023-02-26T12:49:28.526Z,98040.56
2023-02-26T12:53:14.429Z,98052.66
2023-02-26T12:57:05.876Z,98055.41
2023-02-26T13:00:48.878Z,98058.75
2023-02-26T13:04:42.208Z,98054.56
2023-02-26T13:08:22.055Z,98043.53
2023-02-26T13:11:58.484Z,98058.94
2023-02-26T13:15:33.704Z,98066.47
2023-02-26T13:18:53.635Z,98065.41
2023-02-26T13:22:10.300Z,98073.88
2023-02-26T13:25:26.591Z,98085.94
2023-02-26T13:28:46.601Z,98080.84
2023-02-26T13:32:07.759Z,98095.91
2023-02-26T13:35:28.415Z,98076.88
2023-02-26T13:38:56.674Z,98090.03
2023-02-26T13:42:25.317Z,98104.63
2023-02-26T13:45:57.282Z,98113.06
2023-02-26T13:49:17.729Z,98112.00
2023-02-26T13:52:30.947Z,98113.50
2023-02-26T13:55:47.505Z,98123.78
2023-02-26T13:58:58.442Z,98127.06
2023-02-26T14:02:40.929Z,98121.09
2023-02-26T14:06:29.448Z,98128.00
2023-02-26T14:09:55.865Z,98127.97
2023-02-26T14:13:20.184Z,98137.53
2023-02-26T14:16:31.924Z,98142.63
2023-02-26T14:19:44.229Z,98139.88
2023-02-26T14:22:55.937Z,98143.84
2023-02-26T14:26:16.293Z,98140.56
2023-02-26T14:29:42.554Z,98142.16
2023-02-26T14:32:57.614Z,98156.75
2023-02-26T14:36:19.249Z,98156.00
2023-02-26T14:39:42.795Z,98171.72
2023-02-26T14:42:56.892Z,98153.84
2023-02-26T14:46:02.425Z,98170.22
2023-02-26T14:49:21.733Z,98168.16
2023-02-26T14:53:23.839Z,98183.03
2023-02-26T14:56:55.164Z,98192.63
2023-02-26T15:00:20.324Z,98201.59
2023-02-26T15:04:00.803Z,98194.69
2023-02-26T15:07:35.876Z,98193.72
2023-02-26T15:11:09.821Z,98198.22
2023-02-26T15:15:01.783Z,98125.34
2023-02-26T15:18:34.379Z,98212.28
2023-02-26T15:22:00.162Z,98214.91
2023-02-26T15:25:22.089Z,98219.94
2023-02-26T15:28:35.745Z,98231.97
2023-02-26T15:31:54.216Z,98236.31
2023-02-26T15:35:04.956Z,98233.19
2023-02-26T15:38:13.809Z,98144.16
2023-02-26T15:41:21.433Z,98243.81
2023-02-26T15:44:33.644Z,98253.22
2023-02-26T15:47:42.898Z,98262.84
2023-02-26T15:50:57.667Z,98251.97
2023-02-26T15:54:06.386Z,98262.25
2023-02-26T15:57:15.922Z,98263.78
2023-02-26T16:00:27.689Z,98258.72
2023-02-26T16:03:40.585Z,98270.53
2023-02-26T16:06:49.724Z,98280.00
2023-02-26T16:09:58.883Z,98279.28
2023-02-26T16:13:06.708Z,98286.19
2023-02-26T16:16:22.151Z,98201.19
2023-02-26T16:19:41.765Z,98274.25
2023-02-26T16:22:53.776Z,98277.44
2023-02-26T16:26:05.511Z,98306.53
2023-02-26T16:29:21.309Z,98301.38
2023-02-26T16:32:32.367Z,98313.31
2023-02-26T16:35:49.384Z,98301.31
2023-02-26T16:39:05.578Z,98318.19
2023-02-26T16:42:19.202Z,98306.91
2023-02-26T16:45:49.569Z,98329.00
2023-02-26T16:49:02.496Z,98269.34
2023-02-26T16:52:17.451Z,98329.78
2023-02-26T16:55:24.032Z,98338.09
2023-02-26T16:58:30.841Z,98332.94
2023-02-26T17:01:44.611Z,98351.78
2023-02-26T17:04:57.817Z,98288.66
2023-02-26T17:08:17.772Z,98352.41
2023-02-26T17:11:31.185Z,98356.69
2023-02-26T17:14:44.454Z,98344.84
2023-02-26T17:17:50.573Z,98352.41
2023-02-26T17:20:58.495Z,98349.25
2023-02-26T17:24:07.411Z,98358.41
2023-02-26T17:27:21.534Z,98373.09
2023-02-26T17:30:31.708Z,98214.09
2023-02-26T17:33:41.386Z,98375.66
2023-02-26T17:36:47.351Z,98367.31
2023-02-26T17:39:57.774Z,98388.09
2023-02-26T17:43:04.786Z,98386.28
2023-02-26T17:46:14.780Z,98394.66
2023-02-26T17:49:20.307Z,98382.72
2023-02-26T17:52:26.930Z,98387.63
2023-02-26T17:55:37.630Z,98387.47
2023-02-26T17:58:45.730Z,98401.16
2023-02-26T18:01:53.589Z,98401.28
2023-02-26T18:05:00.156Z,98403.97
2023-02-26T18:08:05.614Z,98408.47
2023-02-26T18:11:15.923Z,98398.00
2023-02-26T18:14:22.228Z,98399.78
2023-02-26T18:17:34.439Z,98384.56
2023-02-26T18:20:40.044Z,98412.66
2023-02-26T18:23:47.418Z,98418.56
2023-02-26T18:26:55.782Z,98427.25
2023-02-26T18:30:03.042Z,98403.50
2023-02-26T18:33:08.804Z,98433.31
2023-02-26T18:36:34.656Z,98434.97
2023-02-26T18:39:40.366Z,98442.78
2023-02-26T18:42:49.480Z,98441.88
2023-02-26T18:45:57.401Z,98453.88
2023-02-26T18:49:04.442Z,98451.97
2023-02-26T18:52:10.179Z,98446.59
2023-02-26T18:55:17.111Z,98438.06
2023-02-26T18:58:25.970Z,98434.66
2023-02-26T19:01:32.582Z,98447.59
2023-02-26T19:04:38.804Z,98453.56
2023-02-26T19:07:45.710Z,98466.53
2023-02-26T19:10:51.666Z,98474.28
2023-02-26T19:14:01.436Z,98462.41
2023-02-26T19:17:10.314Z,98463.25
2023-02-26T19:20:17.984Z,98467.53
2023-02-26T19:23:24.304Z,98482.00
2023-02-26T19:26:30.798Z,98483.66
2023-02-26T19:29:40.427Z,98488.78
2023-02-26T19:32:46.961Z,98490.56
2023-02-26T19:35:52.552Z,98493.97
2023-02-26T19:38:59.145Z,98496.53
2023-02-26T19:42:04.991Z,98492.19
2023-02-26T19:45:16.055Z,98484.50
2023-02-26T19:48:21.780Z,98494.75
2023-02-26T19:51:28.738Z,98493.97
2023-02-26T19:54:34.906Z,98505.97
2023-02-26T19:57:41.373Z,98504.25
2023-02-26T20:00:49.657Z,98517.16
2023-02-26T20:03:56.463Z,98514.69
2023-02-26T20:07:02.515Z,98518.25
2023-02-26T20:10:11.045Z,98525.13
2023-02-26T20:13:17.451Z,98532.06
2023-02-26T20:16:26.584Z,98537.16
2023-02-26T20:19:32.021Z,98542.38
2023-02-26T20:22:38.725Z,98543.25
2023-02-26T20:25:50.510Z,98525.28
2023-02-26T20:28:57.084Z,98539.19
2023-02-26T20:32:05.552Z,98541.91
2023-02-26T20:35:13.598Z,98542.81
2023-02-26T20:38:23.205Z,98537.84
2023-02-26T20:41:29.786Z,98546.72
2023-02-26T20:44:35.956Z,98558.97
2023-02-26T20:47:45.214Z,98546.22
2023-02-26T20:50:53.876Z,98548.97
2023-02-26T20:54:00.373Z,98547.28
2023-02-26T20:57:06.890Z,98557.69
2023-02-26T21:00:15.626Z,98559.38
2023-02-26T21:03:24.252Z,98553.44
2023-02-26T21:06:31.180Z,98560.16
2023-02-26T21:09:36.721Z,98562.81
2023-02-26T21:12:44.061Z,98555.22
2023-02-26T21:15:51.706Z,98551.06
2023-02-26T21:19:03.896Z,98562.13
2023-02-26T21:22:09.398Z,98574.25
2023-02-26T21:25:16.020Z,98569.13
2023-02-26T21:28:21.701Z,98561.59
2023-02-26T21:31:28.399Z,98574.41
2023-02-26T21:34:38.323Z,98575.22
2023-02-26T21:37:45.013Z,98567.50
2023-02-26T21:40:53.502Z,98589.13
2023-02-26T21:44:00.102Z,98583.16
2023-02-26T21:47:07.588Z,98518.34
2023-02-26T21:50:17.299Z,98584.00
2023-02-26T21:53:23.105Z,98584.72
2023-02-26T21:56:29.411Z,98595.00
2023-02-26T21:59:34.887Z,98588.06
2023-02-26T22:02:42.434Z,98599.09
2023-02-26T22:05:54.085Z,98607.78
2023-02-26T22:09:00.389Z,98601.00
2023-02-26T22:12:07.120Z,98606.34
2023-02-26T22:15:14.446Z,98604.72
2023-02-26T22:18:19.935Z,98613.28
2023-02-26T22:21:29.349Z,98614.25
2023-02-26T22:24:35.150Z,98621.16
2023-02-26T22:27:41.819Z,98623.69
2023-02-26T22:30:47.846Z,98617.84
2023-02-26T22:33:54.138Z,98623.69
2023-02-26T22:37:02.421Z,98634.97
2023-02-26T22:40:10.060Z,98632.47
2023-02-26T22:43:15.480Z,98629.88
2023-02-26T22:46:24.502Z,98634.25
2023-02-26T22:49:30.358Z,98638.53
2023-02-26T22:52:39.413Z,98636.00
2023-02-26T22:55:44.971Z,98642.84
2023-02-26T22:58:51.273Z,98641.34
2023-02-26T23:01:56.818Z,98643.06
2023-02-26T23:05:03.223Z,98654.13
2023-02-26T23:08:11.658Z,98643.91
2023-02-26T23:11:17.928Z,98657.56
2023-02-26T23:14:23.489Z,98662.69
2023-02-26T23:17:30.561Z,98615.94
2023-02-26T23:20:36.152Z,98666.09
2023-02-26T23:23:45.496Z,98666.91
2023-02-26T23:26:51.076Z,98662.56
2023-02-26T23:29:57.382Z,98669.53
2023-02-26T23:33:02.908Z,98678.97
2023-02-26T23:36:10.531Z,98685.94
2023-02-26T23:39:18.818Z,98680.84
2023-02-26T23:42:25.227Z,98682.63
2023-02-26T23:45:30.710Z,98671.50
2023-02-26T23:48:37.265Z,98682.63
2023-02-26T23:51:42.709Z,98681.09
2023-02-26T23:54:52.111Z,98688.94
2023-02-26T23:57:57.553Z,98698.56
